createdAt,value
2022-12-24T00:01:25.749Z,11.27
2022-12-24T00:03:53.440Z,10.93
2022-12-24T00:06:22.740Z,11.35
2022-12-24T00:08:50.991Z,11.30
2022-12-24T00:11:19.018Z,11.10
2022-12-24T00:13:46.711Z,10.90
2022-12-24T00:16:16.058Z,11.11
2022-12-24T00:18:46.572Z,10.95
2022-12-24T00:21:14.973Z,11.09
2022-12-24T00:23:42.695Z,10.85
2022-12-24T00:26:10.336Z,10.94
2022-12-24T00:28:38.050Z,10.92
2022-12-24T00:31:10.123Z,11.02
2022-12-24T00:33:39.263Z,11.94
2022-12-24T00:36:08.125Z,11.84
2022-12-24T00:38:35.833Z,11.39
2022-12-24T00:41:05.111Z,11.17
2022-12-24T00:43:33.361Z,10.73
2022-12-24T00:46:01.096Z,11.18
2022-12-24T00:48:28.862Z,11.21
2022-12-24T00:50:57.987Z,11.19
2022-12-24T00:53:25.684Z,11.31
2022-12-24T00:55:53.377Z,11.05
2022-12-24T00:58:21.092Z,11.25
2022-12-24T01:00:48.820Z,11.21
2022-12-24T01:03:16.497Z,11.14
2022-12-24T01:05:43.289Z,10.72
2022-12-24T01:08:12.308Z,10.93
2022-12-24T01:10:40.004Z,10.65
2022-12-24T01:13:07.717Z,10.61
2022-12-24T01:15:35.402Z,11.06
2022-12-24T01:18:03.482Z,10.94
2022-12-24T01:20:33.068Z,11.17
2022-12-24T01:23:01.435Z,10.87
2022-12-24T01:25:30.576Z,10.94
2022-12-24T01:27:58.328Z,10.91
2022-12-24T01:30:26.276Z,11.09
2022-12-24T01:32:53.996Z,10.91
2022-12-24T01:35:21.719Z,10.67
2022-12-24T01:37:49.419Z,10.58
2022-12-24T01:40:47.793Z,10.50
2022-12-24T01:43:24.927Z,10.78
2022-12-24T01:45:53.911Z,11.10
2022-12-24T01:48:26.468Z,10.86
2022-12-24T01:50:56.689Z,10.95
2022-12-24T01:53:24.924Z,10.93
2022-12-24T01:55:53.158Z,11.33
2022-12-24T01:58:23.015Z,10.66
2022-12-24T02:00:50.704Z,10.99
2022-12-24T02:03:18.453Z,10.86
2022-12-24T02:05:48.709Z,10.94
2022-12-24T02:08:16.860Z,11.21
2022-12-24T02:10:44.723Z,11.40
2022-12-24T02:13:13.791Z,11.15
2022-12-24T02:15:53.294Z,11.20
2022-12-24T02:18:24.451Z,11.44
2022-12-24T02:21:16.731Z,10.99
2022-12-24T02:23:58.480Z,11.24
2022-12-24T02:26:35.564Z,10.82
2022-12-24T02:29:19.485Z,11.09
2022-12-24T02:31:51.875Z,11.10
2022-12-24T02:34:23.731Z,10.74
2022-12-24T02:36:57.054Z,11.01
2022-12-24T02:39:28.556Z,11.56
2022-12-24T02:42:07.047Z,11.30
2022-12-24T02:44:39.794Z,11.23
2022-12-24T02:47:10.357Z,11.37
2022-12-24T02:49:38.714Z,11.43
2022-12-24T02:52:06.615Z,11.55
2022-12-24T02:54:34.428Z,11.25
2022-12-24T02:57:09.907Z,11.24
2022-12-24T02:59:53.627Z,11.32
2022-12-24T03:02:30.792Z,11.21
2022-12-24T03:05:03.683Z,10.92
2022-12-24T03:07:36.068Z,11.29
2022-12-24T03:10:11.006Z,11.11
2022-12-24T03:12:41.342Z,11.16
2022-12-24T03:15:10.899Z,11.41
2022-12-24T03:17:42.034Z,11.81
2022-12-24T03:20:11.440Z,11.57
2022-12-24T03:22:39.975Z,11.30
2022-12-24T03:25:08.333Z,11.28
2022-12-24T03:27:36.615Z,11.78
2022-12-24T03:30:06.530Z,11.31
2022-12-24T03:32:35.417Z,11.10
2022-12-24T03:35:04.969Z,11.16
2022-12-24T03:37:32.642Z,11.13
2022-12-24T03:40:00.281Z,10.63
2022-12-24T03:42:27.925Z,11.53
2022-12-24T03:44:55.658Z,11.61
2022-12-24T03:47:23.405Z,11.32
2022-12-24T03:49:51.047Z,11.96
2022-12-24T03:52:20.044Z,11.59
2022-12-24T03:54:47.688Z,11.31
2022-12-24T03:57:15.329Z,11.37
2022-12-24T03:59:43.030Z,11.45
2022-12-24T04:02:10.828Z,11.28
2022-12-24T04:04:38.606Z,11.03
2022-12-24T04:07:06.843Z,11.20
2022-12-24T04:09:35.867Z,11.20
2022-12-24T04:12:03.696Z,11.61
2022-12-24T04:14:31.476Z,10.80
2022-12-24T04:16:59.303Z,11.42
2022-12-24T04:19:27.119Z,11.66
2022-12-24T04:21:54.849Z,11.55
2022-12-24T04:24:22.514Z,10.99
2022-12-24T04:26:51.564Z,11.20
2022-12-24T04:29:19.301Z,10.96
2022-12-24T04:31:47.053Z,11.03
2022-12-24T04:34:14.807Z,11.10
2022-12-24T04:36:42.503Z,11.09
2022-12-24T04:39:10.178Z,10.76
2022-12-24T04:41:37.867Z,10.87
2022-12-24T04:44:06.980Z,11.50
2022-12-24T04:46:35.595Z,11.41
2022-12-24T04:49:03.328Z,11.72
2022-12-24T04:51:31.054Z,11.27
2022-12-24T04:53:58.905Z,11.10
2022-12-24T04:56:28.115Z,11.68
2022-12-24T04:58:56.257Z,12.04
2022-12-24T05:01:27.039Z,11.67
2022-12-24T05:03:55.128Z,11.60
2022-12-24T05:06:24.611Z,10.93
2022-12-24T05:08:54.925Z,11.42
2022-12-24T05:11:22.845Z,11.30
2022-12-24T05:13:50.601Z,11.58
2022-12-24T05:16:19.899Z,10.78
2022-12-24T05:18:49.059Z,11.48
2022-12-24T05:21:18.315Z,11.33
2022-12-24T05:24:03.972Z,10.90
2022-12-24T05:26:34.543Z,11.35
2022-12-24T05:29:03.441Z,11.38
2022-12-24T05:31:33.489Z,11.36
2022-12-24T05:34:03.225Z,11.06
2022-12-24T05:36:31.018Z,11.69
2022-12-24T05:38:58.902Z,11.63
2022-12-24T05:41:26.631Z,10.97
2022-12-24T05:43:54.459Z,11.55
2022-12-24T05:46:24.192Z,11.40
2022-12-24T05:48:52.597Z,11.48
2022-12-24T05:51:23.519Z,11.50
2022-12-24T05:53:52.413Z,11.98
2022-12-24T05:56:21.963Z,11.52
2022-12-24T05:58:49.986Z,12.00
2022-12-24T06:01:17.973Z,11.34
2022-12-24T06:03:45.737Z,11.53
2022-12-24T06:06:14.947Z,11.28
2022-12-24T06:08:43.978Z,11.80
2022-12-24T06:11:14.278Z,11.24
2022-12-24T06:13:42.606Z,11.02
2022-12-24T06:16:13.683Z,11.64
2022-12-24T06:18:42.304Z,11.17
2022-12-24T06:21:10.601Z,11.95
2022-12-24T06:23:40.561Z,11.62
2022-12-24T06:26:12.529Z,11.33
2022-12-24T06:28:40.393Z,11.95
2022-12-24T06:31:10.677Z,10.88
2022-12-24T06:33:38.447Z,11.56
2022-12-24T06:36:13.199Z,10.88
2022-12-24T06:38:44.513Z,11.54
2022-12-24T06:41:13.528Z,11.65
2022-12-24T06:43:44.802Z,11.51
2022-12-24T06:46:12.635Z,11.31
2022-12-24T06:48:40.370Z,11.01
2022-12-24T06:51:08.101Z,11.60
2022-12-24T06:53:35.847Z,12.20
2022-12-24T06:56:04.077Z,11.61
2022-12-24T06:58:33.906Z,12.06
2022-12-24T07:01:02.787Z,12.14
2022-12-24T07:03:30.649Z,12.26
2022-12-24T07:05:58.753Z,12.38
2022-12-24T07:08:26.750Z,11.93
2022-12-24T07:10:54.888Z,11.58
2022-12-24T07:13:22.715Z,11.59
2022-12-24T07:15:59.535Z,11.16
2022-12-24T07:18:27.365Z,11.38
2022-12-24T07:20:55.067Z,11.91
2022-12-24T07:23:22.951Z,11.35
2022-12-24T07:25:50.632Z,11.70
2022-12-24T07:28:23.909Z,12.03
2022-12-24T07:30:55.127Z,12.27
2022-12-24T07:33:24.315Z,11.42
2022-12-24T07:35:59.301Z,11.60
2022-12-24T07:38:27.076Z,12.06
2022-12-24T07:40:54.817Z,12.43
2022-12-24T07:43:22.532Z,11.11
2022-12-24T07:45:50.191Z,11.57
2022-12-24T07:48:17.887Z,11.48
2022-12-24T07:50:46.986Z,11.53
2022-12-24T07:53:14.653Z,11.43
2022-12-24T07:55:42.415Z,12.26
2022-12-24T07:58:10.123Z,11.33
2022-12-24T08:00:38.128Z,11.81
2022-12-24T08:03:05.980Z,11.29
2022-12-24T08:05:35.582Z,11.30
2022-12-24T08:08:04.803Z,11.78
2022-12-24T08:10:32.503Z,12.01
2022-12-24T08:13:00.244Z,11.61
2022-12-24T08:15:27.949Z,11.97
2022-12-24T08:17:55.782Z,11.50
2022-12-24T08:20:23.483Z,12.07
2022-12-24T08:22:51.190Z,12.23
2022-12-24T08:25:20.553Z,11.85
2022-12-24T08:27:48.347Z,11.48
2022-12-24T08:30:21.038Z,11.50
2022-12-24T08:32:50.455Z,11.45
2022-12-24T08:35:18.367Z,10.74
2022-12-24T08:37:46.075Z,11.66
2022-12-24T08:40:14.412Z,11.20
2022-12-24T08:42:43.459Z,11.72
2022-12-24T08:45:12.046Z,11.79
2022-12-24T08:47:40.220Z,11.54
2022-12-24T08:50:09.865Z,10.85
2022-12-24T08:52:37.556Z,11.55
2022-12-24T08:55:06.107Z,12.15
2022-12-24T08:57:36.389Z,11.16
2022-12-24T09:00:06.553Z,11.56
2022-12-24T09:02:34.362Z,12.12
2022-12-24T09:05:02.351Z,11.51
2022-12-24T09:07:30.055Z,11.90
2022-12-24T09:09:57.769Z,11.99
2022-12-24T09:12:25.476Z,11.65
2022-12-24T09:14:59.545Z,12.37
2022-12-24T09:17:32.138Z,11.99
2022-12-24T09:19:59.826Z,11.47
2022-12-24T09:22:27.576Z,11.67
2022-12-24T09:24:55.552Z,11.87
2022-12-24T09:27:23.430Z,11.52
2022-12-24T09:29:51.255Z,11.66
2022-12-24T09:32:19.026Z,11.90
2022-12-24T09:34:48.206Z,11.99
2022-12-24T09:37:15.969Z,12.07
2022-12-24T09:39:43.938Z,11.70
2022-12-24T09:42:22.610Z,12.35
2022-12-24T09:44:54.730Z,12.16
2022-12-24T09:47:26.191Z,11.61
2022-12-24T09:49:58.501Z,11.78
2022-12-24T09:52:30.771Z,12.20
2022-12-24T09:55:04.862Z,12.00
2022-12-24T09:57:38.064Z,11.84
2022-12-24T10:00:07.336Z,11.46
2022-12-24T10:02:35.475Z,12.18
2022-12-24T10:05:05.073Z,12.46
2022-12-24T10:07:39.194Z,12.34
2022-12-24T10:10:16.883Z,12.46
2022-12-24T10:12:51.201Z,12.43
2022-12-24T10:15:24.859Z,12.73
2022-12-24T10:18:02.570Z,12.53
2022-12-24T10:20:41.268Z,12.26
2022-12-24T10:23:15.458Z,11.78
2022-12-24T10:25:46.669Z,11.56
2022-12-24T10:28:17.001Z,12.41
2022-12-24T10:30:48.183Z,12.28
2022-12-24T10:33:20.673Z,12.46
2022-12-24T10:35:53.755Z,11.81
2022-12-24T10:38:21.567Z,11.70
2022-12-24T10:40:51.257Z,11.69
2022-12-24T10:43:21.069Z,11.81
2022-12-24T10:45:51.549Z,11.98
2022-12-24T10:48:24.465Z,11.69
2022-12-24T10:50:59.643Z,12.16
2022-12-24T10:53:35.363Z,12.07
2022-12-24T10:56:05.851Z,12.07
2022-12-24T10:58:34.032Z,12.09
2022-12-24T11:01:01.781Z,12.43
2022-12-24T11:03:34.552Z,12.02
2022-12-24T11:06:06.942Z,12.56
2022-12-24T11:08:35.310Z,12.15
2022-12-24T11:11:04.737Z,11.75
2022-12-24T11:13:38.705Z,12.34
2022-12-24T11:16:09.437Z,13.25
2022-12-24T11:18:39.015Z,12.37
2022-12-24T11:21:09.230Z,12.57
2022-12-24T11:23:36.887Z,12.68
2022-12-24T11:26:04.644Z,13.13
2022-12-24T11:28:33.758Z,12.43
2022-12-24T11:31:04.085Z,12.28
2022-12-24T11:33:32.505Z,12.88
2022-12-24T11:36:06.184Z,12.03
2022-12-24T11:38:36.315Z,12.60
2022-12-24T11:41:09.293Z,12.16
2022-12-24T11:43:47.200Z,11.92
2022-12-24T11:46:24.016Z,12.47
2022-12-24T11:49:08.225Z,12.63
2022-12-24T11:51:36.668Z,12.45
2022-12-24T11:54:13.088Z,12.97
2022-12-24T11:56:44.865Z,13.15
2022-12-24T11:59:19.263Z,12.43
2022-12-24T12:01:55.133Z,12.35
2022-12-24T12:04:24.607Z,12.79
2022-12-24T12:06:56.493Z,12.15
2022-12-24T12:09:27.715Z,12.30
2022-12-24T12:11:58.633Z,12.33
2022-12-24T12:14:30.435Z,12.27
2022-12-24T12:17:03.994Z,12.25
2022-12-24T12:19:37.120Z,12.66
2022-12-24T12:22:07.491Z,12.95
2022-12-24T12:24:39.744Z,12.64
2022-12-24T12:27:17.936Z,13.18
2022-12-24T12:29:47.868Z,12.33
2022-12-24T12:32:25.624Z,12.24
2022-12-24T12:35:01.523Z,12.82
2022-12-24T12:37:32.410Z,12.48
2022-12-24T12:40:01.758Z,12.81
2022-12-24T12:42:32.553Z,12.58
2022-12-24T12:45:07.909Z,12.52
2022-12-24T12:48:06.643Z,11.79
2022-12-24T12:50:36.179Z,12.11
2022-12-24T12:53:15.167Z,12.07
2022-12-24T12:55:53.428Z,12.15
2022-12-24T12:58:24.862Z,12.30
2022-12-24T13:00:56.251Z,12.36
2022-12-24T13:03:45.442Z,13.02
2022-12-24T13:06:38.002Z,13.25
2022-12-24T13:09:23.971Z,12.91
2022-12-24T13:12:05.848Z,12.72
2022-12-24T13:14:49.020Z,12.86
2022-12-24T13:17:49.875Z,13.15
2022-12-24T13:20:21.863Z,12.93
2022-12-24T13:22:57.443Z,13.53
2022-12-24T13:25:28.684Z,12.85
2022-12-24T13:27:57.722Z,12.76
2022-12-24T13:30:38.371Z,13.30
2022-12-24T13:33:06.406Z,12.45
2022-12-24T13:35:38.867Z,12.43
2022-12-24T13:38:30.843Z,12.91
2022-12-24T13:41:38.718Z,12.52
2022-12-24T13:44:23.430Z,11.35
2022-12-24T13:46:56.508Z,11.94
2022-12-24T13:49:29.275Z,11.53
2022-12-24T13:52:18.631Z,11.69
2022-12-24T13:54:50.514Z,11.69
2022-12-24T13:57:32.024Z,11.40
2022-12-24T14:00:04.699Z,11.44
2022-12-24T14:02:36.357Z,11.72
2022-12-24T14:05:08.610Z,12.09
2022-12-24T14:07:37.467Z,11.42
2022-12-24T14:10:06.700Z,11.47
2022-12-24T14:12:47.908Z,11.24
2022-12-24T14:16:04.451Z,11.75
2022-12-24T14:18:36.754Z,11.85
2022-12-24T14:21:05.838Z,11.91
2022-12-24T14:23:48.228Z,11.40
2022-12-24T14:26:18.551Z,11.49
2022-12-24T14:28:50.115Z,11.68
2022-12-24T14:31:19.608Z,11.43
2022-12-24T14:33:48.971Z,11.66
2022-12-24T14:36:21.071Z,11.41
2022-12-24T14:38:49.786Z,11.99
2022-12-24T14:41:29.326Z,12.17
2022-12-24T14:44:02.571Z,11.89
2022-12-24T14:46:34.711Z,11.53
2022-12-24T14:49:09.603Z,12.23
2022-12-24T14:51:40.486Z,11.96
2022-12-24T14:54:20.865Z,11.47
2022-12-24T14:56:48.614Z,11.39
2022-12-24T14:59:17.173Z,11.68
2022-12-24T15:01:45.668Z,11.22
2022-12-24T15:04:19.340Z,11.40
2022-12-24T15:06:49.412Z,11.67
2022-12-24T15:09:20.606Z,10.59
2022-12-24T15:11:48.252Z,11.09
2022-12-24T15:14:15.745Z,11.15
2022-12-24T15:16:43.541Z,10.98
2022-12-24T15:19:13.277Z,11.07
2022-12-24T15:21:42.184Z,10.80
2022-12-24T15:24:24.341Z,10.72
2022-12-24T15:26:51.896Z,10.60
2022-12-24T15:29:22.624Z,10.60
2022-12-24T15:31:53.187Z,10.59
2022-12-24T15:34:26.605Z,11.04
2022-12-24T15:37:01.199Z,10.37
2022-12-24T15:39:28.762Z,10.19
2022-12-24T15:42:14.316Z,10.68
2022-12-24T15:44:42.066Z,10.82
2022-12-24T15:47:13.653Z,10.66
2022-12-24T15:49:41.155Z,10.33
2022-12-24T15:52:10.696Z,10.39
2022-12-24T15:54:38.233Z,10.47
2022-12-24T15:57:15.258Z,10.98
2022-12-24T15:59:42.779Z,10.39
2022-12-24T16:02:22.707Z,10.56
2022-12-24T16:04:50.411Z,10.01
2022-12-24T16:07:26.379Z,10.16
2022-12-24T16:10:13.868Z,10.36
2022-12-24T16:12:41.367Z,10.09
2022-12-24T16:15:14.161Z,10.47
2022-12-24T16:17:41.633Z,10.26
2022-12-24T16:20:09.783Z,10.34
2022-12-24T16:22:40.479Z,10.45
2022-12-24T16:25:22.988Z,10.43
2022-12-24T16:27:50.551Z,10.14
2022-12-24T16:30:18.324Z,10.42
2022-12-24T16:32:45.817Z,9.94
2022-12-24T16:35:18.487Z,10.10
2022-12-24T16:37:47.359Z,9.94
2022-12-24T16:40:19.377Z,10.29
2022-12-24T16:43:07.127Z,9.68
2022-12-24T16:45:34.677Z,10.39
2022-12-24T16:48:02.202Z,10.47
2022-12-24T16:50:29.754Z,10.38
2022-12-24T16:52:58.554Z,10.30
2022-12-24T16:55:26.119Z,10.40
2022-12-24T16:57:53.569Z,10.26
2022-12-24T17:00:22.076Z,10.37
2022-12-24T17:02:50.160Z,10.29
2022-12-24T17:05:18.114Z,10.12
2022-12-24T17:07:45.843Z,10.09
2022-12-24T17:10:14.890Z,10.16
2022-12-24T17:12:42.734Z,9.96
2022-12-24T17:15:10.743Z,10.12
2022-12-24T17:17:38.244Z,10.20
2022-12-24T17:20:06.286Z,10.09
2022-12-24T17:22:33.743Z,10.06
2022-12-24T17:25:01.232Z,9.89
2022-12-24T17:27:30.107Z,9.93
2022-12-24T17:29:57.664Z,9.90
2022-12-24T17:32:25.853Z,9.80
2022-12-24T17:34:53.404Z,9.76
2022-12-24T17:37:20.929Z,9.74
2022-12-24T17:39:48.479Z,9.68
2022-12-24T17:42:16.169Z,9.74
2022-12-24T17:44:45.023Z,9.77
2022-12-24T17:47:12.563Z,9.62
2022-12-24T17:49:40.054Z,9.53
2022-12-24T17:52:07.552Z,9.54
2022-12-24T17:54:35.038Z,9.41
2022-12-24T17:57:02.772Z,9.29
2022-12-24T17:59:30.283Z,9.25
2022-12-24T18:01:59.290Z,9.35
2022-12-24T18:04:26.827Z,9.66
2022-12-24T18:07:01.666Z,9.75
2022-12-24T18:09:30.188Z,9.71
2022-12-24T18:11:57.729Z,9.68
2022-12-24T18:14:25.225Z,9.70
2022-12-24T18:16:52.797Z,9.73
2022-12-24T18:19:21.712Z,9.70
2022-12-24T18:21:49.261Z,9.67
2022-12-24T18:24:16.743Z,9.68
2022-12-24T18:26:44.503Z,9.63
2022-12-24T18:29:12.414Z,9.51
2022-12-24T18:31:40.024Z,9.54
2022-12-24T18:34:08.264Z,9.45
2022-12-24T18:36:37.181Z,9.43
2022-12-24T18:39:06.154Z,9.34
2022-12-24T18:41:33.712Z,9.22
2022-12-24T18:44:01.248Z,9.18
2022-12-24T18:46:29.496Z,9.30
2022-12-24T18:48:58.114Z,9.33
2022-12-24T18:51:25.851Z,9.12
2022-12-24T18:53:54.729Z,9.06
2022-12-24T18:56:22.835Z,9.22
2022-12-24T18:58:52.714Z,9.70
2022-12-24T19:01:20.846Z,9.63
2022-12-24T19:03:49.242Z,9.56
2022-12-24T19:06:17.212Z,9.68
2022-12-24T19:09:01.576Z,9.73
2022-12-24T19:11:31.617Z,9.61
2022-12-24T19:13:59.472Z,9.63
2022-12-24T19:16:27.276Z,9.39
2022-12-24T19:18:54.919Z,9.57
2022-12-24T19:21:22.531Z,9.56
2022-12-24T19:23:50.072Z,9.71
2022-12-24T19:26:17.898Z,9.66
2022-12-24T19:28:46.773Z,9.73
2022-12-24T19:31:15.403Z,9.61
2022-12-24T19:33:44.106Z,9.52
2022-12-24T19:36:12.485Z,9.50
2022-12-24T19:38:39.946Z,9.50
2022-12-24T19:41:08.344Z,9.61
2022-12-24T19:43:37.742Z,9.49
2022-12-24T19:46:07.194Z,9.48
2022-12-24T19:48:35.103Z,9.35
2022-12-24T19:51:02.734Z,9.35
2022-12-24T19:53:30.258Z,9.34
2022-12-24T19:55:58.854Z,9.58
2022-12-24T19:58:26.506Z,9.62
2022-12-24T20:00:54.037Z,9.53
2022-12-24T20:03:22.936Z,9.66
2022-12-24T20:05:50.462Z,9.63
2022-12-24T20:08:18.021Z,9.49
2022-12-24T20:10:45.507Z,9.57
2022-12-24T20:13:12.981Z,9.80
2022-12-24T20:15:40.572Z,9.64
2022-12-24T20:18:08.262Z,9.73
2022-12-24T20:20:37.126Z,9.73
2022-12-24T20:23:04.736Z,9.73
2022-12-24T20:25:34.514Z,9.63
2022-12-24T20:28:02.057Z,9.72
2022-12-24T20:30:29.541Z,9.50
2022-12-24T20:32:57.468Z,9.66
2022-12-24T20:35:25.046Z,9.63
2022-12-24T20:37:53.881Z,9.70
2022-12-24T20:40:21.362Z,9.57
2022-12-24T20:42:48.869Z,9.74
2022-12-24T20:45:16.410Z,9.85
2022-12-24T20:47:43.936Z,9.80
2022-12-24T20:50:11.755Z,9.90
2022-12-24T20:52:39.221Z,9.88
2022-12-24T20:55:08.524Z,9.92
2022-12-24T20:57:36.948Z,9.85
2022-12-24T21:00:05.008Z,9.82
2022-12-24T21:02:32.636Z,9.66
2022-12-24T21:05:02.578Z,9.52
2022-12-24T21:07:30.407Z,9.79
2022-12-24T21:09:57.902Z,9.48
2022-12-24T21:12:44.306Z,9.96
2022-12-24T21:15:12.108Z,10.21
2022-12-24T21:17:39.563Z,10.14
2022-12-24T21:20:07.709Z,10.23
2022-12-24T21:22:35.189Z,9.95
2022-12-24T21:25:02.640Z,10.02
2022-12-24T21:27:31.750Z,9.79
2022-12-24T21:29:59.291Z,9.93
2022-12-24T21:32:27.143Z,10.11
2022-12-24T21:34:54.603Z,9.73
2022-12-24T21:37:22.075Z,9.74
2022-12-24T21:39:49.565Z,9.97
2022-12-24T21:42:17.039Z,9.61
2022-12-24T21:44:45.968Z,9.79
2022-12-24T21:47:13.620Z,9.76
2022-12-24T21:49:58.660Z,9.28
2022-12-24T21:52:26.208Z,9.51
2022-12-24T21:54:52.741Z,9.53
2022-12-24T21:57:37.659Z,9.54
2022-12-24T22:00:26.915Z,9.67
2022-12-24T22:02:56.541Z,9.67
2022-12-24T22:05:26.046Z,9.62
2022-12-24T22:08:11.307Z,9.75
2022-12-24T22:10:56.272Z,9.78
2022-12-24T22:13:23.863Z,9.84
2022-12-24T22:15:53.197Z,9.68
2022-12-24T22:18:21.358Z,9.80
2022-12-24T22:20:49.111Z,9.85
2022-12-24T22:23:16.835Z,9.61
2022-12-24T22:25:44.773Z,9.74
2022-12-24T22:28:12.374Z,9.74
2022-12-24T22:30:40.252Z,9.94
2022-12-24T22:33:09.455Z,9.80
2022-12-24T22:35:38.318Z,9.69
2022-12-24T22:38:05.844Z,9.68
2022-12-24T22:40:33.359Z,9.94
2022-12-24T22:43:00.868Z,10.00
2022-12-24T22:45:28.318Z,9.79
2022-12-24T22:47:56.269Z,10.10
2022-12-24T22:50:25.144Z,10.01
2022-12-24T22:52:53.923Z,9.97
2022-12-24T22:55:21.533Z,9.73
2022-12-24T22:57:49.094Z,9.92
2022-12-24T23:00:17.974Z,10.01
2022-12-24T23:02:45.571Z,9.98
2022-12-24T23:05:14.241Z,9.88
2022-12-24T23:07:43.105Z,9.82
2022-12-24T23:10:10.720Z,9.80
2022-12-24T23:12:55.825Z,9.90
2022-12-24T23:15:23.308Z,9.85
2022-12-24T23:17:50.890Z,9.70
2022-12-24T23:20:18.391Z,9.70
2022-12-24T23:22:47.429Z,9.79
2022-12-24T23:25:14.981Z,9.57
2022-12-24T23:27:42.466Z,9.71
2022-12-24T23:30:10.565Z,9.72
2022-12-24T23:32:38.055Z,9.50
2022-12-24T23:35:05.785Z,9.56
2022-12-24T23:37:35.338Z,9.71
2022-12-24T23:40:04.887Z,9.59
2022-12-24T23:42:32.363Z,9.73
2022-12-24T23:44:59.869Z,9.60
2022-12-24T23:47:27.610Z,9.56
2022-12-24T23:49:55.071Z,9.54
2022-12-24T23:52:22.583Z,9.68
2022-12-24T23:54:50.082Z,9.37
2022-12-24T23:57:18.967Z,9.65
2022-12-24T23:59:46.574Z,9.65
